Pittsburg, KS

4:11 AM CDT on August 26, 2016 (GMT -0500)
Atkinson Municipal | | Change Station

Elev 951 ft 37.45 °N, 94.73 °W | Updated 16 minutes ago

Overcast
Overcast
76 °F
Feels Like 76 °F
N
0
Wind Variable Wind from North

Today
High -- | Low -- °F
--% Chance of Precip.
Yesterday
High -- | Low -- °F
Precip. -- in
Pressure 30.09 in
Visibility 10.0 miles
Clouds Overcast 3000 ft
Dew Point 74 °F
Humidity 93%
Rainfall 0.00 in
Snow Depth Not available.
6:44 AM 7:55 PM
Last Quarter, 36% visible
METAR KPTS 260855Z AUTO 00000KT 10SM OVC030 24/23 A3009 RMK AO2 LTG DSNT N AND NW T02430231
Pressure 30.09 in
Visibility 10.0 miles
Clouds Overcast 3000 ft
Dew Point 74 °F
Humidity 93%
Rainfall 0.00 in
Snow Depth Not available.
6:44 AM 7:55 PM
Last Quarter, 36% visible
METAR KPTS 260855Z AUTO 00000KT 10SM OVC030 24/23 A3009 RMK AO2 LTG DSNT N AND NW T02430231

10-Day Weather Forecast

Almanac

Astronomy

Aug. 26, 2016 Rise Set
Actual Time
Civil Twilight
Nautical Twilight
Astronomical Twilight
Moon
Length of Visible Light
Length of Day
Tomorrow will be .
, % of the Moon is Illuminated

Today's Extremes

State Highs State Lows

Community

WunderPhotos

Upload Photos

1,935,069 photos uploaded!

WunderBlog® & News

Nearby

Air Quality

  Air Quality AQ Index Pollutant
Not available.

Snow Depth

Station Depth Elevation

Earthquake Activity

City Distance Mag. Time & Date
Minimum magnitude displayed is 2.5.

Coastal Water Temperatures

Place Temperature

Stations

Nearby Weather Stations

Station Location Temp. Windchill Dew Point Humidity Wind Precip. Elev Updated Type
                   

Watches & Warnings

There are currently no watches in effect.